sensor_id;sensor_type;location;lat;lon;timestamp;P1;durP1;ratioP1;P2;durP2;ratioP2
10450;SDS011;5273;51.290;6.918;2023-04-21T00:00:50;28.03;;;19.47;;
10450;SDS011;5273;51.290;6.918;2023-04-21T00:03:17;27.73;;;18.73;;
10450;SDS011;5273;51.290;6.918;2023-04-21T00:05:46;28.87;;;20.17;;
10450;SDS011;5273;51.290;6.918;2023-04-21T00:08:13;28.80;;;19.40;;
10450;SDS011;5273;51.290;6.918;2023-04-21T00:10:40;29.70;;;20.20;;
10450;SDS011;5273;51.290;6.918;2023-04-21T00:13:07;27.30;;;18.83;;
10450;SDS011;5273;51.290;6.918;2023-04-21T00:15:34;30.33;;;19.63;;
10450;SDS011;5273;51.290;6.918;2023-04-21T00:18:03;28.13;;;19.87;;
10450;SDS011;5273;51.290;6.918;2023-04-21T00:20:30;27.10;;;19.93;;
10450;SDS011;5273;51.290;6.918;2023-04-21T00:22:57;30.73;;;19.83;;
10450;SDS011;5273;51.290;6.918;2023-04-21T00:25:25;33.70;;;21.27;;
10450;SDS011;5273;51.290;6.918;2023-04-21T00:27:52;33.53;;;21.20;;
10450;SDS011;5273;51.290;6.918;2023-04-21T00:30:18;28.10;;;18.87;;
10450;SDS011;5273;51.290;6.918;2023-04-21T00:32:45;28.40;;;19.67;;
10450;SDS011;5273;51.290;6.918;2023-04-21T00:35:13;29.93;;;20.50;;
10450;SDS011;5273;51.290;6.918;2023-04-21T00:37:40;36.90;;;22.07;;
10450;SDS011;5273;51.290;6.918;2023-04-21T00:40:08;30.20;;;20.07;;
10450;SDS011;5273;51.290;6.918;2023-04-21T00:42:35;32.63;;;20.57;;
10450;SDS011;5273;51.290;6.918;2023-04-21T00:45:02;31.57;;;21.27;;
10450;SDS011;5273;51.290;6.918;2023-04-21T00:47:29;30.07;;;20.93;;
10450;SDS011;5273;51.290;6.918;2023-04-21T00:49:56;30.17;;;19.87;;
10450;SDS011;5273;51.290;6.918;2023-04-21T00:52:24;32.73;;;21.23;;
10450;SDS011;5273;51.290;6.918;2023-04-21T00:54:51;32.83;;;21.33;;
10450;SDS011;5273;51.290;6.918;2023-04-21T00:57:19;29.77;;;19.70;;
10450;SDS011;5273;51.290;6.918;2023-04-21T00:59:46;31.43;;;19.73;;
10450;SDS011;5273;51.290;6.918;2023-04-21T01:02:13;32.93;;;20.47;;
10450;SDS011;5273;51.290;6.918;2023-04-21T01:04:40;33.90;;;21.90;;
10450;SDS011;5273;51.290;6.918;2023-04-21T01:07:09;32.77;;;20.53;;
10450;SDS011;5273;51.290;6.918;2023-04-21T01:09:37;34.40;;;22.73;;
10450;SDS011;5273;51.290;6.918;2023-04-21T01:12:05;36.07;;;21.93;;
10450;SDS011;5273;51.290;6.918;2023-04-21T01:14:33;31.03;;;21.70;;
10450;SDS011;5273;51.290;6.918;2023-04-21T01:17:00;36.70;;;23.53;;
10450;SDS011;5273;51.290;6.918;2023-04-21T01:19:30;34.83;;;22.30;;
10450;SDS011;5273;51.290;6.918;2023-04-21T01:21:59;34.17;;;21.80;;
10450;SDS011;5273;51.290;6.918;2023-04-21T01:24:34;33.27;;;23.33;;
10450;SDS011;5273;51.290;6.918;2023-04-21T01:27:02;37.40;;;22.33;;
10450;SDS011;5273;51.290;6.918;2023-04-21T01:29:33;36.67;;;23.13;;
10450;SDS011;5273;51.290;6.918;2023-04-21T01:32:03;35.57;;;21.70;;
10450;SDS011;5273;51.290;6.918;2023-04-21T01:34:31;34.90;;;22.60;;
10450;SDS011;5273;51.290;6.918;2023-04-21T01:36:59;36.53;;;22.33;;
10450;SDS011;5273;51.290;6.918;2023-04-21T01:39:26;35.80;;;23.70;;
10450;SDS011;5273;51.290;6.918;2023-04-21T01:41:53;38.13;;;22.73;;
10450;SDS011;5273;51.290;6.918;2023-04-21T01:44:22;37.43;;;22.50;;
10450;SDS011;5273;51.290;6.918;2023-04-21T01:46:49;34.40;;;22.77;;
10450;SDS011;5273;51.290;6.918;2023-04-21T01:49:15;35.03;;;22.13;;
10450;SDS011;5273;51.290;6.918;2023-04-21T01:51:42;35.77;;;22.10;;
10450;SDS011;5273;51.290;6.918;2023-04-21T01:54:10;33.43;;;20.13;;
10450;SDS011;5273;51.290;6.918;2023-04-21T01:56:37;35.67;;;22.60;;
10450;SDS011;5273;51.290;6.918;2023-04-21T01:59:04;35.47;;;21.73;;
10450;SDS011;5273;51.290;6.918;2023-04-21T02:01:31;33.47;;;21.27;;
10450;SDS011;5273;51.290;6.918;2023-04-21T02:03:59;35.57;;;20.40;;
10450;SDS011;5273;51.290;6.918;2023-04-21T02:06:26;32.63;;;21.43;;
10450;SDS011;5273;51.290;6.918;2023-04-21T02:08:53;34.90;;;20.97;;
10450;SDS011;5273;51.290;6.918;2023-04-21T02:11:22;36.70;;;21.30;;
10450;SDS011;5273;51.290;6.918;2023-04-21T02:13:49;34.17;;;21.40;;
10450;SDS011;5273;51.290;6.918;2023-04-21T02:16:16;33.87;;;21.80;;
10450;SDS011;5273;51.290;6.918;2023-04-21T02:18:44;36.77;;;22.63;;
10450;SDS011;5273;51.290;6.918;2023-04-21T02:21:11;34.23;;;21.20;;
10450;SDS011;5273;51.290;6.918;2023-04-21T02:23:38;33.17;;;20.23;;
10450;SDS011;5273;51.290;6.918;2023-04-21T02:26:05;38.27;;;23.27;;
10450;SDS011;5273;51.290;6.918;2023-04-21T02:28:33;37.93;;;23.80;;
10450;SDS011;5273;51.290;6.918;2023-04-21T02:31:00;40.40;;;24.57;;
10450;SDS011;5273;51.290;6.918;2023-04-21T02:33:27;34.07;;;20.83;;
10450;SDS011;5273;51.290;6.918;2023-04-21T02:35:54;32.10;;;20.97;;
10450;SDS011;5273;51.290;6.918;2023-04-21T02:38:21;37.30;;;22.73;;
10450;SDS011;5273;51.290;6.918;2023-04-21T02:40:48;35.13;;;21.73;;
10450;SDS011;5273;51.290;6.918;2023-04-21T02:43:15;32.37;;;21.20;;
10450;SDS011;5273;51.290;6.918;2023-04-21T02:45:43;36.40;;;21.47;;
10450;SDS011;5273;51.290;6.918;2023-04-21T02:48:11;32.70;;;20.50;;
10450;SDS011;5273;51.290;6.918;2023-04-21T02:50:37;30.87;;;20.67;;
10450;SDS011;5273;51.290;6.918;2023-04-21T02:53:05;36.03;;;21.73;;
10450;SDS011;5273;51.290;6.918;2023-04-21T02:55:32;34.83;;;20.57;;
10450;SDS011;5273;51.290;6.918;2023-04-21T02:57:59;36.33;;;21.53;;
10450;SDS011;5273;51.290;6.918;2023-04-21T03:00:25;33.10;;;21.47;;
10450;SDS011;5273;51.290;6.918;2023-04-21T03:02:54;42.33;;;23.13;;
10450;SDS011;5273;51.290;6.918;2023-04-21T03:05:20;34.83;;;20.83;;
10450;SDS011;5273;51.290;6.918;2023-04-21T03:07:47;36.67;;;23.40;;
10450;SDS011;5273;51.290;6.918;2023-04-21T03:10:14;35.53;;;21.13;;
10450;SDS011;5273;51.290;6.918;2023-04-21T03:12:41;37.60;;;23.47;;
10450;SDS011;5273;51.290;6.918;2023-04-21T03:15:08;38.77;;;22.90;;
10450;SDS011;5273;51.290;6.918;2023-04-21T03:17:36;36.53;;;23.33;;
10450;SDS011;5273;51.290;6.918;2023-04-21T03:20:06;43.20;;;23.33;;
10450;SDS011;5273;51.290;6.918;2023-04-21T03:22:33;42.10;;;24.83;;
10450;SDS011;5273;51.290;6.918;2023-04-21T03:25:00;40.37;;;23.67;;
10450;SDS011;5273;51.290;6.918;2023-04-21T03:27:26;42.53;;;24.33;;
10450;SDS011;5273;51.290;6.918;2023-04-21T03:29:53;41.37;;;23.53;;
10450;SDS011;5273;51.290;6.918;2023-04-21T03:32:20;37.37;;;23.60;;
10450;SDS011;5273;51.290;6.918;2023-04-21T03:34:47;37.30;;;22.73;;
10450;SDS011;5273;51.290;6.918;2023-04-21T03:37:16;41.23;;;24.47;;
10450;SDS011;5273;51.290;6.918;2023-04-21T03:39:43;44.77;;;24.47;;
10450;SDS011;5273;51.290;6.918;2023-04-21T03:42:10;40.60;;;23.90;;
10450;SDS011;5273;51.290;6.918;2023-04-21T03:44:37;42.10;;;24.00;;
10450;SDS011;5273;51.290;6.918;2023-04-21T03:47:04;39.67;;;23.63;;
10450;SDS011;5273;51.290;6.918;2023-04-21T03:49:32;37.57;;;22.63;;
10450;SDS011;5273;51.290;6.918;2023-04-21T03:51:59;36.43;;;22.53;;
10450;SDS011;5273;51.290;6.918;2023-04-21T03:54:27;37.10;;;23.17;;
10450;SDS011;5273;51.290;6.918;2023-04-21T03:56:54;35.30;;;22.33;;
10450;SDS011;5273;51.290;6.918;2023-04-21T03:59:21;34.53;;;21.40;;
10450;SDS011;5273;51.290;6.918;2023-04-21T04:01:48;38.00;;;22.77;;
10450;SDS011;5273;51.290;6.918;2023-04-21T04:04:15;43.43;;;24.23;;
10450;SDS011;5273;51.290;6.918;2023-04-21T04:06:41;39.17;;;23.00;;
10450;SDS011;5273;51.290;6.918;2023-04-21T04:09:08;40.27;;;22.63;;
10450;SDS011;5273;51.290;6.918;2023-04-21T04:11:36;38.97;;;22.90;;
10450;SDS011;5273;51.290;6.918;2023-04-21T04:14:03;36.23;;;21.83;;
10450;SDS011;5273;51.290;6.918;2023-04-21T04:16:30;36.23;;;20.90;;
10450;SDS011;5273;51.290;6.918;2023-04-21T04:18:58;42.23;;;23.27;;
10450;SDS011;5273;51.290;6.918;2023-04-21T04:21:25;38.37;;;22.30;;
10450;SDS011;5273;51.290;6.918;2023-04-21T04:23:52;32.70;;;20.70;;
10450;SDS011;5273;51.290;6.918;2023-04-21T04:26:19;36.20;;;22.47;;
10450;SDS011;5273;51.290;6.918;2023-04-21T04:28:50;40.70;;;22.00;;
10450;SDS011;5273;51.290;6.918;2023-04-21T04:31:17;36.43;;;20.77;;
10450;SDS011;5273;51.290;6.918;2023-04-21T04:33:44;34.27;;;21.63;;
10450;SDS011;5273;51.290;6.918;2023-04-21T04:36:10;34.43;;;20.50;;
10450;SDS011;5273;51.290;6.918;2023-04-21T04:38:38;36.63;;;21.33;;
10450;SDS011;5273;51.290;6.918;2023-04-21T04:41:05;35.63;;;21.43;;
10450;SDS011;5273;51.290;6.918;2023-04-21T04:43:33;33.43;;;20.57;;
10450;SDS011;5273;51.290;6.918;2023-04-21T04:46:04;37.80;;;21.80;;
10450;SDS011;5273;51.290;6.918;2023-04-21T04:48:33;38.40;;;21.77;;
10450;SDS011;5273;51.290;6.918;2023-04-21T04:51:00;37.47;;;23.07;;
10450;SDS011;5273;51.290;6.918;2023-04-21T04:53:26;38.63;;;22.53;;
10450;SDS011;5273;51.290;6.918;2023-04-21T04:55:54;41.17;;;22.60;;
10450;SDS011;5273;51.290;6.918;2023-04-21T04:58:21;38.63;;;21.73;;
10450;SDS011;5273;51.290;6.918;2023-04-21T05:00:48;41.60;;;22.33;;
10450;SDS011;5273;51.290;6.918;2023-04-21T05:03:16;38.67;;;21.77;;
10450;SDS011;5273;51.290;6.918;2023-04-21T05:05:43;35.33;;;22.07;;
10450;SDS011;5273;51.290;6.918;2023-04-21T05:08:10;35.87;;;21.47;;
10450;SDS011;5273;51.290;6.918;2023-04-21T05:10:37;36.70;;;22.30;;
10450;SDS011;5273;51.290;6.918;2023-04-21T05:13:04;39.70;;;22.80;;
10450;SDS011;5273;51.290;6.918;2023-04-21T05:15:30;33.30;;;21.40;;
10450;SDS011;5273;51.290;6.918;2023-04-21T05:17:57;32.53;;;21.10;;
10450;SDS011;5273;51.290;6.918;2023-04-21T05:20:25;32.60;;;20.97;;
10450;SDS011;5273;51.290;6.918;2023-04-21T05:22:52;30.97;;;20.97;;
10450;SDS011;5273;51.290;6.918;2023-04-21T05:25:19;33.70;;;20.17;;
10450;SDS011;5273;51.290;6.918;2023-04-21T05:27:45;30.80;;;19.47;;
10450;SDS011;5273;51.290;6.918;2023-04-21T05:30:13;29.10;;;18.50;;
10450;SDS011;5273;51.290;6.918;2023-04-21T05:32:39;29.73;;;18.13;;
10450;SDS011;5273;51.290;6.918;2023-04-21T05:35:06;25.47;;;17.97;;
10450;SDS011;5273;51.290;6.918;2023-04-21T05:37:35;26.03;;;17.03;;
10450;SDS011;5273;51.290;6.918;2023-04-21T05:40:01;24.80;;;17.27;;
10450;SDS011;5273;51.290;6.918;2023-04-21T05:42:28;23.57;;;15.37;;
10450;SDS011;5273;51.290;6.918;2023-04-21T05:44:55;25.70;;;16.67;;
10450;SDS011;5273;51.290;6.918;2023-04-21T05:47:22;24.83;;;17.37;;
10450;SDS011;5273;51.290;6.918;2023-04-21T05:49:50;29.53;;;19.53;;
10450;SDS011;5273;51.290;6.918;2023-04-21T05:52:17;25.00;;;17.47;;
10450;SDS011;5273;51.290;6.918;2023-04-21T05:54:46;24.40;;;16.57;;
10450;SDS011;5273;51.290;6.918;2023-04-21T05:57:12;28.73;;;18.00;;
10450;SDS011;5273;51.290;6.918;2023-04-21T05:59:41;23.50;;;16.63;;
10450;SDS011;5273;51.290;6.918;2023-04-21T06:02:08;22.37;;;15.73;;
10450;SDS011;5273;51.290;6.918;2023-04-21T06:04:35;22.17;;;16.10;;
10450;SDS011;5273;51.290;6.918;2023-04-21T06:07:05;26.77;;;16.07;;
10450;SDS011;5273;51.290;6.918;2023-04-21T06:09:32;25.33;;;16.53;;
10450;SDS011;5273;51.290;6.918;2023-04-21T06:12:00;21.70;;;16.07;;
10450;SDS011;5273;51.290;6.918;2023-04-21T06:14:27;30.13;;;17.33;;
10450;SDS011;5273;51.290;6.918;2023-04-21T06:16:54;24.50;;;16.93;;
10450;SDS011;5273;51.290;6.918;2023-04-21T06:19:20;24.43;;;16.43;;
10450;SDS011;5273;51.290;6.918;2023-04-21T06:21:47;21.57;;;15.30;;
10450;SDS011;5273;51.290;6.918;2023-04-21T06:24:14;23.03;;;15.80;;
10450;SDS011;5273;51.290;6.918;2023-04-21T06:26:48;25.90;;;16.63;;
10450;SDS011;5273;51.290;6.918;2023-04-21T06:29:17;24.67;;;17.47;;
10450;SDS011;5273;51.290;6.918;2023-04-21T06:31:43;26.87;;;18.00;;
10450;SDS011;5273;51.290;6.918;2023-04-21T06:34:10;24.50;;;16.87;;
10450;SDS011;5273;51.290;6.918;2023-04-21T06:36:37;23.30;;;15.77;;
10450;SDS011;5273;51.290;6.918;2023-04-21T06:39:04;25.23;;;18.13;;
10450;SDS011;5273;51.290;6.918;2023-04-21T06:41:30;24.27;;;16.90;;
10450;SDS011;5273;51.290;6.918;2023-04-21T06:43:57;27.60;;;16.27;;
10450;SDS011;5273;51.290;6.918;2023-04-21T06:46:25;25.97;;;16.50;;
10450;SDS011;5273;51.290;6.918;2023-04-21T06:48:52;22.53;;;16.10;;
10450;SDS011;5273;51.290;6.918;2023-04-21T06:51:19;22.13;;;16.23;;
10450;SDS011;5273;51.290;6.918;2023-04-21T06:53:45;23.53;;;15.03;;
10450;SDS011;5273;51.290;6.918;2023-04-21T06:56:12;24.87;;;15.93;;
10450;SDS011;5273;51.290;6.918;2023-04-21T06:58:39;24.60;;;15.53;;
10450;SDS011;5273;51.290;6.918;2023-04-21T07:01:06;23.87;;;16.83;;
10450;SDS011;5273;51.290;6.918;2023-04-21T07:03:34;20.53;;;15.17;;
10450;SDS011;5273;51.290;6.918;2023-04-21T07:06:01;18.13;;;13.23;;
10450;SDS011;5273;51.290;6.918;2023-04-21T07:08:27;18.63;;;13.57;;
10450;SDS011;5273;51.290;6.918;2023-04-21T07:10:54;21.57;;;14.40;;
10450;SDS011;5273;51.290;6.918;2023-04-21T07:13:21;19.23;;;13.47;;
10450;SDS011;5273;51.290;6.918;2023-04-21T07:15:48;18.20;;;13.47;;
10450;SDS011;5273;51.290;6.918;2023-04-21T07:18:15;14.98;;;11.93;;
10450;SDS011;5273;51.290;6.918;2023-04-21T07:20:43;17.67;;;11.77;;
10450;SDS011;5273;51.290;6.918;2023-04-21T07:23:10;18.08;;;12.88;;
10450;SDS011;5273;51.290;6.918;2023-04-21T07:25:37;17.20;;;13.15;;
10450;SDS011;5273;51.290;6.918;2023-04-21T07:28:03;17.55;;;12.55;;
10450;SDS011;5273;51.290;6.918;2023-04-21T07:30:30;18.10;;;12.77;;
10450;SDS011;5273;51.290;6.918;2023-04-21T07:32:57;15.95;;;11.27;;
10450;SDS011;5273;51.290;6.918;2023-04-21T07:35:24;15.50;;;12.18;;
10450;SDS011;5273;51.290;6.918;2023-04-21T07:37:53;15.43;;;11.18;;
10450;SDS011;5273;51.290;6.918;2023-04-21T07:40:20;16.35;;;12.05;;
10450;SDS011;5273;51.290;6.918;2023-04-21T07:42:46;14.10;;;11.25;;
10450;SDS011;5273;51.290;6.918;2023-04-21T07:45:13;14.32;;;10.93;;
10450;SDS011;5273;51.290;6.918;2023-04-21T07:47:40;15.73;;;11.07;;
10450;SDS011;5273;51.290;6.918;2023-04-21T07:50:07;18.48;;;12.48;;
10450;SDS011;5273;51.290;6.918;2023-04-21T07:52:35;15.45;;;11.50;;
10450;SDS011;5273;51.290;6.918;2023-04-21T07:55:03;14.45;;;11.60;;
10450;SDS011;5273;51.290;6.918;2023-04-21T07:57:30;14.48;;;11.77;;
10450;SDS011;5273;51.290;6.918;2023-04-21T07:59:59;16.17;;;12.70;;
10450;SDS011;5273;51.290;6.918;2023-04-21T08:02:25;15.00;;;12.20;;
10450;SDS011;5273;51.290;6.918;2023-04-21T08:04:52;16.58;;;12.38;;
10450;SDS011;5273;51.290;6.918;2023-04-21T08:07:19;15.48;;;11.90;;
10450;SDS011;5273;51.290;6.918;2023-04-21T08:09:46;14.70;;;12.18;;
10450;SDS011;5273;51.290;6.918;2023-04-21T08:12:14;14.77;;;12.40;;
10450;SDS011;5273;51.290;6.918;2023-04-21T08:14:41;15.90;;;12.30;;
10450;SDS011;5273;51.290;6.918;2023-04-21T08:17:08;16.20;;;13.27;;
10450;SDS011;5273;51.290;6.918;2023-04-21T08:19:34;17.05;;;12.32;;
10450;SDS011;5273;51.290;6.918;2023-04-21T08:22:01;14.35;;;11.48;;
10450;SDS011;5273;51.290;6.918;2023-04-21T08:24:28;16.40;;;11.88;;
10450;SDS011;5273;51.290;6.918;2023-04-21T08:26:55;17.25;;;12.75;;
10450;SDS011;5273;51.290;6.918;2023-04-21T08:29:24;16.63;;;12.15;;
10450;SDS011;5273;51.290;6.918;2023-04-21T08:31:50;17.58;;;12.98;;
10450;SDS011;5273;51.290;6.918;2023-04-21T08:34:17;15.80;;;11.45;;
10450;SDS011;5273;51.290;6.918;2023-04-21T08:36:44;15.23;;;11.02;;
10450;SDS011;5273;51.290;6.918;2023-04-21T08:39:12;16.20;;;11.88;;
10450;SDS011;5273;51.290;6.918;2023-04-21T08:41:40;14.73;;;11.05;;
10450;SDS011;5273;51.290;6.918;2023-04-21T08:44:07;14.95;;;11.32;;
10450;SDS011;5273;51.290;6.918;2023-04-21T08:46:37;14.90;;;11.40;;
10450;SDS011;5273;51.290;6.918;2023-04-21T08:49:04;13.38;;;10.75;;
10450;SDS011;5273;51.290;6.918;2023-04-21T08:51:34;13.65;;;11.57;;
10450;SDS011;5273;51.290;6.918;2023-04-21T08:54:01;14.43;;;11.25;;
10450;SDS011;5273;51.290;6.918;2023-04-21T08:56:28;14.52;;;12.52;;
10450;SDS011;5273;51.290;6.918;2023-04-21T08:58:55;15.68;;;11.43;;
10450;SDS011;5273;51.290;6.918;2023-04-21T09:01:21;17.23;;;13.07;;
10450;SDS011;5273;51.290;6.918;2023-04-21T09:03:50;17.13;;;13.07;;
10450;SDS011;5273;51.290;6.918;2023-04-21T09:06:16;16.70;;;13.55;;
10450;SDS011;5273;51.290;6.918;2023-04-21T09:08:47;17.13;;;13.82;;
10450;SDS011;5273;51.290;6.918;2023-04-21T09:11:19;18.63;;;14.23;;
10450;SDS011;5273;51.290;6.918;2023-04-21T09:13:46;19.88;;;14.77;;
10450;SDS011;5273;51.290;6.918;2023-04-21T09:16:14;18.35;;;14.55;;
10450;SDS011;5273;51.290;6.918;2023-04-21T09:18:42;17.23;;;14.73;;
10450;SDS011;5273;51.290;6.918;2023-04-21T09:21:12;17.42;;;14.10;;
10450;SDS011;5273;51.290;6.918;2023-04-21T09:23:43;20.05;;;14.73;;
10450;SDS011;5273;51.290;6.918;2023-04-21T09:26:11;21.95;;;13.90;;
10450;SDS011;5273;51.290;6.918;2023-04-21T09:28:42;18.58;;;13.85;;
10450;SDS011;5273;51.290;6.918;2023-04-21T09:31:12;20.33;;;14.20;;
10450;SDS011;5273;51.290;6.918;2023-04-21T09:33:44;17.02;;;13.20;;
10450;SDS011;5273;51.290;6.918;2023-04-21T09:36:18;18.75;;;14.25;;
10450;SDS011;5273;51.290;6.918;2023-04-21T09:38:49;23.77;;;14.55;;
10450;SDS011;5273;51.290;6.918;2023-04-21T09:41:22;19.92;;;14.55;;
10450;SDS011;5273;51.290;6.918;2023-04-21T09:43:49;17.77;;;14.13;;
10450;SDS011;5273;51.290;6.918;2023-04-21T09:46:17;21.73;;;16.17;;
10450;SDS011;5273;51.290;6.918;2023-04-21T09:48:45;21.23;;;15.85;;
10450;SDS011;5273;51.290;6.918;2023-04-21T09:51:12;19.10;;;15.35;;
10450;SDS011;5273;51.290;6.918;2023-04-21T09:53:43;19.02;;;15.55;;
10450;SDS011;5273;51.290;6.918;2023-04-21T09:56:12;18.55;;;14.73;;
10450;SDS011;5273;51.290;6.918;2023-04-21T09:58:43;21.58;;;15.98;;
10450;SDS011;5273;51.290;6.918;2023-04-21T10:01:11;21.58;;;16.08;;
10450;SDS011;5273;51.290;6.918;2023-04-21T10:03:40;22.75;;;16.48;;
10450;SDS011;5273;51.290;6.918;2023-04-21T10:06:09;20.75;;;15.80;;
10450;SDS011;5273;51.290;6.918;2023-04-21T10:08:37;21.15;;;15.75;;
10450;SDS011;5273;51.290;6.918;2023-04-21T10:11:06;22.20;;;16.05;;
10450;SDS011;5273;51.290;6.918;2023-04-21T10:13:34;21.70;;;16.20;;
10450;SDS011;5273;51.290;6.918;2023-04-21T10:16:02;20.08;;;15.77;;
10450;SDS011;5273;51.290;6.918;2023-04-21T10:18:32;22.63;;;16.42;;
10450;SDS011;5273;51.290;6.918;2023-04-21T10:21:03;23.40;;;16.05;;
10450;SDS011;5273;51.290;6.918;2023-04-21T10:23:36;20.13;;;15.27;;
10450;SDS011;5273;51.290;6.918;2023-04-21T10:26:07;24.30;;;17.08;;
10450;SDS011;5273;51.290;6.918;2023-04-21T10:28:38;21.25;;;15.25;;
10450;SDS011;5273;51.290;6.918;2023-04-21T10:31:15;20.75;;;15.93;;
10450;SDS011;5273;51.290;6.918;2023-04-21T10:37:08;19.58;;;15.15;;
10450;SDS011;5273;51.290;6.918;2023-04-21T10:39:41;22.13;;;15.00;;
10450;SDS011;5273;51.290;6.918;2023-04-21T10:42:20;22.52;;;16.42;;
10450;SDS011;5273;51.290;6.918;2023-04-21T10:44:52;26.48;;;16.77;;
10450;SDS011;5273;51.290;6.918;2023-04-21T10:47:26;22.35;;;16.27;;
10450;SDS011;5273;51.290;6.918;2023-04-21T10:49:55;21.98;;;16.40;;
10450;SDS011;5273;51.290;6.918;2023-04-21T10:52:29;20.27;;;14.77;;
10450;SDS011;5273;51.290;6.918;2023-04-21T10:55:04;22.77;;;16.00;;
10450;SDS011;5273;51.290;6.918;2023-04-21T10:57:36;21.23;;;16.13;;
10450;SDS011;5273;51.290;6.918;2023-04-21T11:00:03;24.85;;;15.40;;
10450;SDS011;5273;51.290;6.918;2023-04-21T11:02:33;20.73;;;15.23;;
10450;SDS011;5273;51.290;6.918;2023-04-21T11:05:00;21.13;;;16.17;;
10450;SDS011;5273;51.290;6.918;2023-04-21T11:07:27;23.20;;;17.25;;
10450;SDS011;5273;51.290;6.918;2023-04-21T11:09:56;20.00;;;16.20;;
10450;SDS011;5273;51.290;6.918;2023-04-21T11:12:25;20.10;;;15.27;;
10450;SDS011;5273;51.290;6.918;2023-04-21T11:14:54;20.70;;;15.75;;
10450;SDS011;5273;51.290;6.918;2023-04-21T11:17:22;21.95;;;16.52;;
10450;SDS011;5273;51.290;6.918;2023-04-21T11:19:49;22.60;;;17.52;;
10450;SDS011;5273;51.290;6.918;2023-04-21T11:22:17;21.40;;;15.35;;
10450;SDS011;5273;51.290;6.918;2023-04-21T11:24:45;24.48;;;17.45;;
10450;SDS011;5273;51.290;6.918;2023-04-21T11:27:13;22.73;;;17.05;;
10450;SDS011;5273;51.290;6.918;2023-04-21T11:29:40;23.70;;;17.02;;
10450;SDS011;5273;51.290;6.918;2023-04-21T11:32:08;23.00;;;16.52;;
10450;SDS011;5273;51.290;6.918;2023-04-21T11:34:35;21.88;;;16.10;;
10450;SDS011;5273;51.290;6.918;2023-04-21T11:37:03;22.20;;;15.82;;
10450;SDS011;5273;51.290;6.918;2023-04-21T11:39:31;20.77;;;15.43;;
10450;SDS011;5273;51.290;6.918;2023-04-21T11:41:58;22.60;;;15.35;;
10450;SDS011;5273;51.290;6.918;2023-04-21T11:44:30;21.75;;;15.77;;
10450;SDS011;5273;51.290;6.918;2023-04-21T11:46:58;19.88;;;15.60;;
10450;SDS011;5273;51.290;6.918;2023-04-21T11:49:26;18.65;;;14.23;;
10450;SDS011;5273;51.290;6.918;2023-04-21T11:51:54;19.20;;;13.52;;
10450;SDS011;5273;51.290;6.918;2023-04-21T11:54:21;19.05;;;15.07;;
10450;SDS011;5273;51.290;6.918;2023-04-21T11:56:49;17.83;;;14.73;;
10450;SDS011;5273;51.290;6.918;2023-04-21T11:59:17;19.65;;;14.10;;
10450;SDS011;5273;51.290;6.918;2023-04-21T12:01:49;19.83;;;15.18;;
10450;SDS011;5273;51.290;6.918;2023-04-21T12:04:18;17.92;;;14.73;;
10450;SDS011;5273;51.290;6.918;2023-04-21T12:06:56;21.85;;;15.45;;
10450;SDS011;5273;51.290;6.918;2023-04-21T12:09:25;23.00;;;15.88;;
10450;SDS011;5273;51.290;6.918;2023-04-21T12:11:53;23.35;;;16.20;;
10450;SDS011;5273;51.290;6.918;2023-04-21T12:14:21;19.38;;;14.60;;
10450;SDS011;5273;51.290;6.918;2023-04-21T12:16:50;20.70;;;15.55;;
10450;SDS011;5273;51.290;6.918;2023-04-21T12:19:21;23.13;;;15.45;;
10450;SDS011;5273;51.290;6.918;2023-04-21T12:21:55;18.58;;;14.02;;
10450;SDS011;5273;51.290;6.918;2023-04-21T12:24:21;15.02;;;11.30;;
10450;SDS011;5273;51.290;6.918;2023-04-21T12:26:48;16.27;;;12.77;;
10450;SDS011;5273;51.290;6.918;2023-04-21T12:29:15;15.88;;;11.95;;
10450;SDS011;5273;51.290;6.918;2023-04-21T12:31:42;12.75;;;11.25;;
10450;SDS011;5273;51.290;6.918;2023-04-21T12:34:09;15.07;;;12.30;;
10450;SDS011;5273;51.290;6.918;2023-04-21T12:36:36;15.65;;;10.82;;
10450;SDS011;5273;51.290;6.918;2023-04-21T12:39:04;17.63;;;11.48;;
10450;SDS011;5273;51.290;6.918;2023-04-21T12:41:31;17.92;;;13.45;;
10450;SDS011;5273;51.290;6.918;2023-04-21T12:43:59;14.93;;;12.20;;
10450;SDS011;5273;51.290;6.918;2023-04-21T12:46:26;15.23;;;11.60;;
10450;SDS011;5273;51.290;6.918;2023-04-21T12:48:53;16.27;;;11.70;;
10450;SDS011;5273;51.290;6.918;2023-04-21T12:51:20;13.43;;;11.15;;
10450;SDS011;5273;51.290;6.918;2023-04-21T12:53:47;11.88;;;9.85;;
10450;SDS011;5273;51.290;6.918;2023-04-21T12:56:15;15.18;;;10.32;;
10450;SDS011;5273;51.290;6.918;2023-04-21T12:58:42;11.27;;;9.73;;
10450;SDS011;5273;51.290;6.918;2023-04-21T13:01:09;11.95;;;9.68;;
10450;SDS011;5273;51.290;6.918;2023-04-21T13:03:38;11.57;;;8.85;;
10450;SDS011;5273;51.290;6.918;2023-04-21T13:06:05;11.05;;;8.50;;
10450;SDS011;5273;51.290;6.918;2023-04-21T13:08:32;12.00;;;9.38;;
10450;SDS011;5273;51.290;6.918;2023-04-21T13:11:00;11.13;;;8.85;;
10450;SDS011;5273;51.290;6.918;2023-04-21T13:13:28;11.18;;;8.75;;
10450;SDS011;5273;51.290;6.918;2023-04-21T13:15:55;12.75;;;9.68;;
10450;SDS011;5273;51.290;6.918;2023-04-21T13:18:22;11.27;;;8.10;;
10450;SDS011;5273;51.290;6.918;2023-04-21T13:20:49;10.75;;;7.78;;
10450;SDS011;5273;51.290;6.918;2023-04-21T13:23:15;9.45;;;7.63;;
10450;SDS011;5273;51.290;6.918;2023-04-21T13:25:42;9.35;;;7.90;;
10450;SDS011;5273;51.290;6.918;2023-04-21T13:28:10;8.23;;;6.60;;
10450;SDS011;5273;51.290;6.918;2023-04-21T13:30:39;8.52;;;7.45;;
10450;SDS011;5273;51.290;6.918;2023-04-21T13:33:06;9.05;;;6.95;;
10450;SDS011;5273;51.290;6.918;2023-04-21T13:35:32;7.78;;;6.75;;
10450;SDS011;5273;51.290;6.918;2023-04-21T13:37:59;7.78;;;6.95;;
10450;SDS011;5273;51.290;6.918;2023-04-21T13:40:26;7.20;;;6.50;;
10450;SDS011;5273;51.290;6.918;2023-04-21T13:42:53;8.90;;;6.57;;
10450;SDS011;5273;51.290;6.918;2023-04-21T13:45:20;8.45;;;6.72;;
10450;SDS011;5273;51.290;6.918;2023-04-21T13:47:48;8.60;;;6.88;;
10450;SDS011;5273;51.290;6.918;2023-04-21T13:50:15;9.45;;;6.38;;
10450;SDS011;5273;51.290;6.918;2023-04-21T13:52:42;6.90;;;6.20;;
10450;SDS011;5273;51.290;6.918;2023-04-21T13:55:09;11.07;;;6.63;;
10450;SDS011;5273;51.290;6.918;2023-04-21T13:57:36;7.63;;;6.82;;
10450;SDS011;5273;51.290;6.918;2023-04-21T14:00:04;7.47;;;6.57;;
10450;SDS011;5273;51.290;6.918;2023-04-21T14:02:33;9.57;;;6.38;;
10450;SDS011;5273;51.290;6.918;2023-04-21T14:05:01;11.40;;;6.60;;
10450;SDS011;5273;51.290;6.918;2023-04-21T14:07:28;7.88;;;6.63;;
10450;SDS011;5273;51.290;6.918;2023-04-21T14:09:55;9.50;;;6.78;;
10450;SDS011;5273;51.290;6.918;2023-04-21T14:12:22;8.02;;;6.28;;
10450;SDS011;5273;51.290;6.918;2023-04-21T14:14:50;7.22;;;6.10;;
10450;SDS011;5273;51.290;6.918;2023-04-21T14:17:17;9.55;;;6.50;;
10450;SDS011;5273;51.290;6.918;2023-04-21T14:19:43;7.55;;;6.03;;
10450;SDS011;5273;51.290;6.918;2023-04-21T14:22:12;8.10;;;6.22;;
10450;SDS011;5273;51.290;6.918;2023-04-21T14:24:40;8.82;;;5.65;;
10450;SDS011;5273;51.290;6.918;2023-04-21T14:27:07;6.82;;;6.13;;
10450;SDS011;5273;51.290;6.918;2023-04-21T14:29:34;6.25;;;5.53;;
10450;SDS011;5273;51.290;6.918;2023-04-21T14:32:01;7.10;;;5.30;;
10450;SDS011;5273;51.290;6.918;2023-04-21T14:34:28;5.55;;;4.88;;
10450;SDS011;5273;51.290;6.918;2023-04-21T14:36:55;5.55;;;4.95;;
10450;SDS011;5273;51.290;6.918;2023-04-21T14:39:24;5.35;;;4.68;;
10450;SDS011;5273;51.290;6.918;2023-04-21T14:41:51;7.03;;;5.00;;
10450;SDS011;5273;51.290;6.918;2023-04-21T14:44:18;5.55;;;4.97;;